sensor_id;sensor_type;location;lat;lon;timestamp;pressure;altitude;pressure_sealevel;temperature;humidity
11339;BME280;5724;42.684;23.252;2022-07-11T00:01:44;94382.69;;;15.55;65.52
11339;BME280;5724;42.684;23.252;2022-07-11T00:04:10;94371.66;;;15.55;65.64
11339;BME280;5724;42.684;23.252;2022-07-11T00:06:35;94379.50;;;15.53;65.22
11339;BME280;5724;42.684;23.252;2022-07-11T00:09:01;94380.69;;;15.48;65.71
11339;BME280;5724;42.684;23.252;2022-07-11T00:11:26;94387.75;;;15.42;66.21
11339;BME280;5724;42.684;23.252;2022-07-11T00:13:52;94376.34;;;15.43;66.01
11339;BME280;5724;42.684;23.252;2022-07-11T00:16:18;94387.34;;;15.40;66.08
11339;BME280;5724;42.684;23.252;2022-07-11T00:18:43;94394.44;;;15.37;66.01
11339;BME280;5724;42.684;23.252;2022-07-11T00:21:10;94401.91;;;15.44;66.52
11339;BME280;5724;42.684;23.252;2022-07-11T00:23:36;94392.03;;;15.32;66.61
11339;BME280;5724;42.684;23.252;2022-07-11T00:26:03;94391.63;;;15.30;66.56
11339;BME280;5724;42.684;23.252;2022-07-11T00:28:28;94391.63;;;15.34;66.80
11339;BME280;5724;42.684;23.252;2022-07-11T00:30:54;94405.41;;;15.27;66.61
11339;BME280;5724;42.684;23.252;2022-07-11T00:33:20;94406.50;;;15.15;67.07
11339;BME280;5724;42.684;23.252;2022-07-11T00:35:45;94413.56;;;15.12;67.18
11339;BME280;5724;42.684;23.252;2022-07-11T00:38:11;94412.03;;;15.18;67.30
11339;BME280;5724;42.684;23.252;2022-07-11T00:40:37;94402.53;;;15.02;67.48
11339;BME280;5724;42.684;23.252;2022-07-11T00:43:03;94408.47;;;15.11;67.66
11339;BME280;5724;42.684;23.252;2022-07-11T00:45:29;94410.81;;;15.12;67.47
11339;BME280;5724;42.684;23.252;2022-07-11T00:47:54;94404.50;;;15.05;67.79
11339;BME280;5724;42.684;23.252;2022-07-11T00:50:21;94407.66;;;15.07;67.79
11339;BME280;5724;42.684;23.252;2022-07-11T00:52:47;94410.00;;;15.01;68.18
11339;BME280;5724;42.684;23.252;2022-07-11T00:55:12;94409.56;;;14.96;68.56
11339;BME280;5724;42.684;23.252;2022-07-11T00:57:38;94404.88;;;15.00;68.14
11339;BME280;5724;42.684;23.252;2022-07-11T01:00:05;94404.47;;;14.98;68.38
11339;BME280;5724;42.684;23.252;2022-07-11T01:02:32;94409.16;;;14.94;68.59
11339;BME280;5724;42.684;23.252;2022-07-11T01:04:57;94408.38;;;14.93;68.48
11339;BME280;5724;42.684;23.252;2022-07-11T01:07:23;94374.06;;;14.76;68.10
11339;BME280;5724;42.684;23.252;2022-07-11T01:09:49;94407.97;;;14.95;67.80
11339;BME280;5724;42.684;23.252;2022-07-11T01:12:15;94400.88;;;14.86;68.48
11339;BME280;5724;42.684;23.252;2022-07-11T01:14:51;94396.97;;;14.87;68.29
11339;BME280;5724;42.684;23.252;2022-07-11T01:17:17;94395.00;;;14.88;67.86
11339;BME280;5724;42.684;23.252;2022-07-11T01:19:42;94389.44;;;14.84;68.09
11339;BME280;5724;42.684;23.252;2022-07-11T01:22:08;94393.78;;;14.85;67.96
11339;BME280;5724;42.684;23.252;2022-07-11T01:24:33;94391.00;;;14.82;68.07
11339;BME280;5724;42.684;23.252;2022-07-11T01:27:00;94399.66;;;14.80;68.13
11339;BME280;5724;42.684;23.252;2022-07-11T01:29:26;94398.88;;;14.83;67.59
11339;BME280;5724;42.684;23.252;2022-07-11T01:31:52;94404.31;;;14.73;67.97
11339;BME280;5724;42.684;23.252;2022-07-11T01:34:17;94396.47;;;14.75;67.71
11339;BME280;5724;42.684;23.252;2022-07-11T01:36:43;94400.78;;;14.76;67.95
11339;BME280;5724;42.684;23.252;2022-07-11T01:39:08;94391.72;;;14.68;67.85
11339;BME280;5724;42.684;23.252;2022-07-11T01:41:34;94390.56;;;14.73;67.27
11339;BME280;5724;42.684;23.252;2022-07-11T01:44:00;94395.28;;;14.72;67.72
11339;BME280;5724;42.684;23.252;2022-07-11T01:46:26;94386.19;;;14.65;67.42
11339;BME280;5724;42.684;23.252;2022-07-11T01:48:51;94399.94;;;14.65;67.63
11339;BME280;5724;42.684;23.252;2022-07-11T01:51:17;94390.84;;;14.53;67.71
11339;BME280;5724;42.684;23.252;2022-07-11T01:53:43;94401.44;;;14.55;67.90
11339;BME280;5724;42.684;23.252;2022-07-11T01:56:08;94397.13;;;14.54;68.05
11339;BME280;5724;42.684;23.252;2022-07-11T01:58:34;94404.97;;;14.48;68.20
11339;BME280;5724;42.684;23.252;2022-07-11T02:01:00;94410.47;;;14.48;68.02
11339;BME280;5724;42.684;23.252;2022-07-11T02:03:25;94406.16;;;14.54;67.68
11339;BME280;5724;42.684;23.252;2022-07-11T02:05:51;94404.91;;;14.45;67.88
11339;BME280;5724;42.684;23.252;2022-07-11T02:08:16;94402.94;;;14.45;68.18
11339;BME280;5724;42.684;23.252;2022-07-11T02:10:45;94410.41;;;14.45;67.96
11339;BME280;5724;42.684;23.252;2022-07-11T02:13:15;94414.16;;;14.26;68.29
11339;BME280;5724;42.684;23.252;2022-07-11T02:15:42;94419.31;;;14.31;68.55
11339;BME280;5724;42.684;23.252;2022-07-11T02:18:09;94422.81;;;14.28;68.73
11339;BME280;5724;42.684;23.252;2022-07-11T02:20:37;94423.63;;;14.28;68.55
11339;BME280;5724;42.684;23.252;2022-07-11T02:23:21;94427.47;;;14.20;68.98
11339;BME280;5724;42.684;23.252;2022-07-11T02:25:47;94426.63;;;14.13;69.21
11339;BME280;5724;42.684;23.252;2022-07-11T02:28:14;94419.50;;;14.08;69.38
11339;BME280;5724;42.684;23.252;2022-07-11T02:30:41;94411.94;;;13.94;69.61
11339;BME280;5724;42.684;23.252;2022-07-11T02:33:07;94428.50;;;14.05;69.74
11339;BME280;5724;42.684;23.252;2022-07-11T02:35:34;94433.97;;;14.01;69.48
11339;BME280;5724;42.684;23.252;2022-07-11T02:38:01;94427.69;;;14.01;69.77
11339;BME280;5724;42.684;23.252;2022-07-11T02:40:27;94435.88;;;13.97;70.05
11339;BME280;5724;42.684;23.252;2022-07-11T02:42:53;94437.91;;;14.04;69.86
11339;BME280;5724;42.684;23.252;2022-07-11T02:45:18;94435.50;;;13.99;69.86
11339;BME280;5724;42.684;23.252;2022-07-11T02:47:44;94439.47;;;14.01;69.89
11339;BME280;5724;42.684;23.252;2022-07-11T02:50:12;94442.91;;;13.91;70.16
11339;BME280;5724;42.684;23.252;2022-07-11T02:52:39;94432.31;;;13.93;69.77
11339;BME280;5724;42.684;23.252;2022-07-11T02:55:06;94435.38;;;13.85;70.12
11339;BME280;5724;42.684;23.252;2022-07-11T02:57:32;94439.31;;;13.87;70.04
11339;BME280;5724;42.684;23.252;2022-07-11T02:59:58;94442.84;;;13.88;70.25
11339;BME280;5724;42.684;23.252;2022-07-11T03:02:23;94414.13;;;13.78;69.99
11339;BME280;5724;42.684;23.252;2022-07-11T03:04:49;94443.66;;;13.88;69.89
11339;BME280;5724;42.684;23.252;2022-07-11T03:07:14;94442.84;;;13.88;69.89
11339;BME280;5724;42.684;23.252;2022-07-11T03:09:41;94432.25;;;13.86;69.94
11339;BME280;5724;42.684;23.252;2022-07-11T03:12:07;94425.53;;;13.80;70.10
11339;BME280;5724;42.684;23.252;2022-07-11T03:14:32;94440.16;;;13.91;69.72
11339;BME280;5724;42.684;23.252;2022-07-11T03:16:58;94437.75;;;13.86;69.72
11339;BME280;5724;42.684;23.252;2022-07-11T03:19:23;94453.13;;;13.94;69.92
11339;BME280;5724;42.684;23.252;2022-07-11T03:21:49;94459.41;;;13.95;69.83
11339;BME280;5724;42.684;23.252;2022-07-11T03:24:14;94464.09;;;13.91;69.86
11339;BME280;5724;42.684;23.252;2022-07-11T03:26:40;94454.00;;;14.02;70.06
11339;BME280;5724;42.684;23.252;2022-07-11T03:29:05;94459.91;;;14.08;69.79
11339;BME280;5724;42.684;23.252;2022-07-11T03:31:33;94465.84;;;14.10;69.72
11339;BME280;5724;42.684;23.252;2022-07-11T03:33:59;94455.22;;;14.08;69.73
11339;BME280;5724;42.684;23.252;2022-07-11T03:36:25;94462.38;;;14.16;69.53
11339;BME280;5724;42.684;23.252;2022-07-11T03:38:51;94447.03;;;14.12;69.69
11339;BME280;5724;42.684;23.252;2022-07-11T03:41:17;94459.66;;;14.20;70.08
11339;BME280;5724;42.684;23.252;2022-07-11T03:43:42;94461.19;;;14.17;69.82
11339;BME280;5724;42.684;23.252;2022-07-11T03:46:08;94457.72;;;14.20;69.86
11339;BME280;5724;42.684;23.252;2022-07-11T03:48:34;94463.53;;;14.15;70.31
11339;BME280;5724;42.684;23.252;2022-07-11T03:50:59;94469.09;;;14.22;69.98
11339;BME280;5724;42.684;23.252;2022-07-11T03:53:25;94475.84;;;14.28;70.02
11339;BME280;5724;42.684;23.252;2022-07-11T03:55:50;94480.97;;;14.33;69.85
11339;BME280;5724;42.684;23.252;2022-07-11T03:58:16;94491.19;;;14.33;70.02
11339;BME280;5724;42.684;23.252;2022-07-11T04:00:41;94494.38;;;14.39;69.89
11339;BME280;5724;42.684;23.252;2022-07-11T04:03:07;94494.03;;;14.44;70.17
11339;BME280;5724;42.684;23.252;2022-07-11T04:05:33;94492.94;;;14.48;70.19
11339;BME280;5724;42.684;23.252;2022-07-11T04:07:58;94502.41;;;14.54;70.14
11339;BME280;5724;42.684;23.252;2022-07-11T04:10:24;94503.19;;;14.55;70.28
11339;BME280;5724;42.684;23.252;2022-07-11T04:12:49;94505.63;;;14.64;70.12
11339;BME280;5724;42.684;23.252;2022-07-11T04:15:15;94499.25;;;14.56;70.69
11339;BME280;5724;42.684;23.252;2022-07-11T04:17:40;94504.81;;;14.63;70.24
11339;BME280;5724;42.684;23.252;2022-07-11T04:20:06;94507.56;;;14.59;70.02
11339;BME280;5724;42.684;23.252;2022-07-11T04:22:32;94505.53;;;14.53;70.69
11339;BME280;5724;42.684;23.252;2022-07-11T04:24:57;94509.53;;;14.59;70.46
11339;BME280;5724;42.684;23.252;2022-07-11T04:27:23;94495.34;;;14.57;71.08
11339;BME280;5724;42.684;23.252;2022-07-11T04:29:52;94505.28;;;14.69;71.32
11339;BME280;5724;42.684;23.252;2022-07-11T04:32:17;94509.59;;;14.70;71.27
11339;BME280;5724;42.684;23.252;2022-07-11T04:34:43;94514.72;;;14.75;70.71
11339;BME280;5724;42.684;23.252;2022-07-11T04:37:08;94503.78;;;14.78;70.93
11339;BME280;5724;42.684;23.252;2022-07-11T04:39:34;94492.34;;;14.76;70.84
11339;BME280;5724;42.684;23.252;2022-07-11T04:42:00;94502.22;;;14.84;71.34
11339;BME280;5724;42.684;23.252;2022-07-11T04:44:28;94505.03;;;14.88;71.15
11339;BME280;5724;42.684;23.252;2022-07-11T04:46:54;94500.25;;;14.81;70.78
11339;BME280;5724;42.684;23.252;2022-07-11T04:49:20;94505.81;;;14.88;70.80
11339;BME280;5724;42.684;23.252;2022-07-11T04:51:45;94505.03;;;14.92;70.86
11339;BME280;5724;42.684;23.252;2022-07-11T04:54:11;94512.19;;;15.00;71.11
11339;BME280;5724;42.684;23.252;2022-07-11T04:56:36;94506.72;;;15.07;70.68
11339;BME280;5724;42.684;23.252;2022-07-11T04:59:03;94516.56;;;15.08;71.10
11339;BME280;5724;42.684;23.252;2022-07-11T05:01:29;94510.69;;;15.09;70.79
11339;BME280;5724;42.684;23.252;2022-07-11T05:03:55;94518.59;;;15.22;71.17
11339;BME280;5724;42.684;23.252;2022-07-11T05:06:21;94528.03;;;15.21;71.65
11339;BME280;5724;42.684;23.252;2022-07-11T05:08:47;94519.38;;;15.18;71.36
11339;BME280;5724;42.684;23.252;2022-07-11T05:11:12;94525.75;;;15.33;71.42
11339;BME280;5724;42.684;23.252;2022-07-11T05:13:38;94526.09;;;15.25;70.89
11339;BME280;5724;42.684;23.252;2022-07-11T05:16:04;94524.13;;;15.22;71.18
11339;BME280;5724;42.684;23.252;2022-07-11T05:18:29;94528.81;;;15.21;71.08
11339;BME280;5724;42.684;23.252;2022-07-11T05:20:57;94536.75;;;15.30;70.63
11339;BME280;5724;42.684;23.252;2022-07-11T05:23:22;94535.22;;;15.39;70.27
11339;BME280;5724;42.684;23.252;2022-07-11T05:25:47;94530.47;;;15.29;69.96
11339;BME280;5724;42.684;23.252;2022-07-11T05:28:13;94536.81;;;15.40;69.85
11339;BME280;5724;42.684;23.252;2022-07-11T05:30:38;94534.06;;;15.44;67.66
11339;BME280;5724;42.684;23.252;2022-07-11T05:33:04;94518.72;;;15.39;67.30
11339;BME280;5724;42.684;23.252;2022-07-11T05:35:29;94539.97;;;15.42;65.33
11339;BME280;5724;42.684;23.252;2022-07-11T05:37:55;94537.66;;;15.52;63.58
11339;BME280;5724;42.684;23.252;2022-07-11T05:40:21;94539.28;;;15.60;62.35
11339;BME280;5724;42.684;23.252;2022-07-11T05:42:46;94554.97;;;15.52;61.64
11339;BME280;5724;42.684;23.252;2022-07-11T05:45:12;94549.94;;;15.61;62.65
11339;BME280;5724;42.684;23.252;2022-07-11T05:47:38;94548.78;;;15.66;58.80
11339;BME280;5724;42.684;23.252;2022-07-11T05:50:05;94531.00;;;15.56;56.30
11339;BME280;5724;42.684;23.252;2022-07-11T05:52:30;94540.88;;;15.61;55.78
11339;BME280;5724;42.684;23.252;2022-07-11T05:54:57;94550.25;;;15.49;54.28
11339;BME280;5724;42.684;23.252;2022-07-11T05:57:22;94589.56;;;15.50;54.30
11339;BME280;5724;42.684;23.252;2022-07-11T05:59:48;94547.81;;;15.37;52.51
11339;BME280;5724;42.684;23.252;2022-07-11T06:02:13;94556.91;;;15.48;53.69
11339;BME280;5724;42.684;23.252;2022-07-11T06:04:39;94567.09;;;15.40;51.77
11339;BME280;5724;42.684;23.252;2022-07-11T06:07:05;94555.75;;;15.45;52.76
11339;BME280;5724;42.684;23.252;2022-07-11T06:09:30;94554.97;;;15.49;54.94
11339;BME280;5724;42.684;23.252;2022-07-11T06:11:56;94547.91;;;15.55;54.81
11339;BME280;5724;42.684;23.252;2022-07-11T06:14:21;94533.41;;;15.61;54.08
11339;BME280;5724;42.684;23.252;2022-07-11T06:16:47;94543.28;;;15.69;52.62
11339;BME280;5724;42.684;23.252;2022-07-11T06:19:14;94544.56;;;15.90;52.59
11339;BME280;5724;42.684;23.252;2022-07-11T06:21:40;94559.16;;;15.94;52.32
11339;BME280;5724;42.684;23.252;2022-07-11T06:24:05;94548.06;;;15.80;51.05
11339;BME280;5724;42.684;23.252;2022-07-11T06:26:31;94558.28;;;15.76;51.86
11339;BME280;5724;42.684;23.252;2022-07-11T06:28:56;94549.97;;;15.68;51.78
11339;BME280;5724;42.684;23.252;2022-07-11T06:31:22;94554.00;;;15.85;52.12
11339;BME280;5724;42.684;23.252;2022-07-11T06:33:48;94557.59;;;16.00;51.51
11339;BME280;5724;42.684;23.252;2022-07-11T06:36:20;94544.19;;;15.98;51.37
11339;BME280;5724;42.684;23.252;2022-07-11T06:38:49;94578.44;;;15.97;50.55
11339;BME280;5724;42.684;23.252;2022-07-11T06:41:15;94563.88;;;16.00;52.30
11339;BME280;5724;42.684;23.252;2022-07-11T06:43:40;94564.66;;;16.01;53.17
11339;BME280;5724;42.684;23.252;2022-07-11T06:46:06;94556.03;;;16.10;52.54
11339;BME280;5724;42.684;23.252;2022-07-11T06:48:31;94577.75;;;16.22;51.39
11339;BME280;5724;42.684;23.252;2022-07-11T06:50:57;94551.31;;;16.07;50.85
11339;BME280;5724;42.684;23.252;2022-07-11T06:53:22;94542.28;;;16.13;51.76
11339;BME280;5724;42.684;23.252;2022-07-11T06:55:47;94553.28;;;16.06;50.75
11339;BME280;5724;42.684;23.252;2022-07-11T06:58:13;94567.09;;;16.13;48.16
11339;BME280;5724;42.684;23.252;2022-07-11T07:00:56;94577.34;;;16.16;47.31
11339;BME280;5724;42.684;23.252;2022-07-11T07:03:23;94505.56;;;15.77;47.96
11339;BME280;5724;42.684;23.252;2022-07-11T07:05:48;94579.66;;;16.07;47.08
11339;BME280;5724;42.684;23.252;2022-07-11T07:08:14;94543.47;;;16.16;48.72
11339;BME280;5724;42.684;23.252;2022-07-11T07:10:39;94566.31;;;16.13;47.33
11339;BME280;5724;42.684;23.252;2022-07-11T07:13:05;94534.84;;;16.24;49.30
11339;BME280;5724;42.684;23.252;2022-07-11T07:15:30;94558.41;;;16.04;49.43
11339;BME280;5724;42.684;23.252;2022-07-11T07:17:56;94528.84;;;16.01;50.88
11339;BME280;5724;42.684;23.252;2022-07-11T07:20:21;94539.91;;;16.08;52.41
11339;BME280;5724;42.684;23.252;2022-07-11T07:22:47;94540.72;;;16.16;53.48
11339;BME280;5724;42.684;23.252;2022-07-11T07:25:12;94536.78;;;16.20;53.06
11339;BME280;5724;42.684;23.252;2022-07-11T07:27:38;94524.63;;;16.39;53.10
11339;BME280;5724;42.684;23.252;2022-07-11T07:30:04;94549.44;;;16.39;52.74
11339;BME280;5724;42.684;23.252;2022-07-11T07:32:30;94551.31;;;16.03;52.63
11339;BME280;5724;42.684;23.252;2022-07-11T07:34:55;94534.00;;;16.10;53.88
11339;BME280;5724;42.684;23.252;2022-07-11T07:37:21;94541.13;;;16.21;53.28
11339;BME280;5724;42.684;23.252;2022-07-11T07:39:46;94538.41;;;16.32;53.29
11339;BME280;5724;42.684;23.252;2022-07-11T07:42:12;94561.63;;;16.27;52.67
11339;BME280;5724;42.684;23.252;2022-07-11T07:44:37;94541.44;;;15.95;53.12
11339;BME280;5724;42.684;23.252;2022-07-11T07:47:03;94544.66;;;16.18;52.69
11339;BME280;5724;42.684;23.252;2022-07-11T07:49:28;94542.69;;;16.15;52.63
11339;BME280;5724;42.684;23.252;2022-07-11T07:51:54;94547.47;;;16.33;52.51
11339;BME280;5724;42.684;23.252;2022-07-11T07:54:19;94528.97;;;16.44;52.33
11339;BME280;5724;42.684;23.252;2022-07-11T07:56:45;94541.56;;;16.48;51.92
11339;BME280;5724;42.684;23.252;2022-07-11T07:59:10;94538.06;;;16.51;51.89
11339;BME280;5724;42.684;23.252;2022-07-11T08:01:36;94539.59;;;16.45;52.88
11339;BME280;5724;42.684;23.252;2022-07-11T08:04:06;94521.50;;;16.55;52.39
11339;BME280;5724;42.684;23.252;2022-07-11T08:06:32;94546.00;;;16.71;52.66
11339;BME280;5724;42.684;23.252;2022-07-11T08:08:58;94547.56;;;16.72;51.38
11339;BME280;5724;42.684;23.252;2022-07-11T08:11:25;94539.59;;;16.38;52.12
11339;BME280;5724;42.684;23.252;2022-07-11T08:13:51;94583.72;;;16.45;51.70
11339;BME280;5724;42.684;23.252;2022-07-11T08:16:16;94553.38;;;16.35;50.83
11339;BME280;5724;42.684;23.252;2022-07-11T08:18:42;94558.53;;;16.43;49.80
11339;BME280;5724;42.684;23.252;2022-07-11T08:21:08;94550.66;;;16.63;51.16
11339;BME280;5724;42.684;23.252;2022-07-11T08:23:34;94552.19;;;16.32;49.93
11339;BME280;5724;42.684;23.252;2022-07-11T08:26:00;94573.84;;;16.23;49.43
11339;BME280;5724;42.684;23.252;2022-07-11T08:28:26;94556.91;;;16.35;50.51
11339;BME280;5724;42.684;23.252;2022-07-11T08:30:51;94558.50;;;16.40;48.90
11339;BME280;5724;42.684;23.252;2022-07-11T08:33:17;94549.09;;;16.51;50.15
11339;BME280;5724;42.684;23.252;2022-07-11T08:35:42;94554.59;;;16.55;49.48
11339;BME280;5724;42.684;23.252;2022-07-11T08:38:08;94534.09;;;16.59;48.39
11339;BME280;5724;42.684;23.252;2022-07-11T08:40:33;94552.28;;;16.71;49.90
11339;BME280;5724;42.684;23.252;2022-07-11T08:43:00;94570.34;;;16.47;49.45
11339;BME280;5724;42.684;23.252;2022-07-11T08:45:30;94518.72;;;16.44;49.09
11339;BME280;5724;42.684;23.252;2022-07-11T08:47:57;94556.53;;;16.47;48.03
11339;BME280;5724;42.684;23.252;2022-07-11T08:50:25;94535.34;;;16.73;47.48
11339;BME280;5724;42.684;23.252;2022-07-11T08:52:56;94544.34;;;16.55;48.28
11339;BME280;5724;42.684;23.252;2022-07-11T08:55:22;94565.69;;;16.73;48.07
11339;BME280;5724;42.684;23.252;2022-07-11T08:57:48;94548.72;;;16.60;48.16
11339;BME280;5724;42.684;23.252;2022-07-11T09:00:13;94522.66;;;16.57;46.01
11339;BME280;5724;42.684;23.252;2022-07-11T09:02:43;94557.34;;;16.51;47.80
11339;BME280;5724;42.684;23.252;2022-07-11T09:05:10;94556.13;;;16.38;46.93
11339;BME280;5724;42.684;23.252;2022-07-11T09:07:46;94543.53;;;16.37;46.93
11339;BME280;5724;42.684;23.252;2022-07-11T09:10:13;94551.47;;;16.60;48.54
11339;BME280;5724;42.684;23.252;2022-07-11T09:13:07;94566.41;;;16.48;46.80
11339;BME280;5724;42.684;23.252;2022-07-11T09:15:40;94585.34;;;16.68;47.20
11339;BME280;5724;42.684;23.252;2022-07-11T09:18:30;94538.03;;;16.55;47.92
11339;BME280;5724;42.684;23.252;2022-07-11T09:23:48;94565.63;;;16.55;46.73
11339;BME280;5724;42.684;23.252;2022-07-11T09:26:37;94557.03;;;16.71;46.19
11339;BME280;5724;42.684;23.252;2022-07-11T09:29:10;94602.72;;;16.79;45.61
11339;BME280;5724;42.684;23.252;2022-07-11T09:31:37;94575.16;;;16.86;46.40
11339;BME280;5724;42.684;23.252;2022-07-11T09:34:11;94551.50;;;16.71;47.19
11339;BME280;5724;42.684;23.252;2022-07-11T09:36:45;94562.56;;;16.99;47.45
11339;BME280;5724;42.684;23.252;2022-07-11T09:39:19;94583.81;;;16.77;45.64
11339;BME280;5724;42.684;23.252;2022-07-11T09:41:46;94581.41;;;16.65;46.17
11339;BME280;5724;42.684;23.252;2022-07-11T09:44:14;94561.34;;;16.97;47.54
11339;BME280;5724;42.684;23.252;2022-07-11T09:46:42;94557.81;;;16.96;45.05
11339;BME280;5724;42.684;23.252;2022-07-11T09:49:09;94554.66;;;16.83;45.40
11339;BME280;5724;42.684;23.252;2022-07-11T09:51:36;94549.94;;;17.12;46.02
11339;BME280;5724;42.684;23.252;2022-07-11T09:54:03;94579.13;;;17.21;46.99
11339;BME280;5724;42.684;23.252;2022-07-11T09:56:38;94575.97;;;17.11;45.20
11339;BME280;5724;42.684;23.252;2022-07-11T09:59:11;94571.22;;;16.91;45.79
11339;BME280;5724;42.684;23.252;2022-07-11T10:01:38;94542.03;;;16.75;46.79
11339;BME280;5724;42.684;23.252;2022-07-11T10:04:06;94568.06;;;17.10;45.03
11339;BME280;5724;42.684;23.252;2022-07-11T10:06:32;94575.94;;;16.97;46.23
11339;BME280;5724;42.684;23.252;2022-07-11T10:08:58;94544.41;;;17.05;47.21
11339;BME280;5724;42.684;23.252;2022-07-11T10:11:23;94559.00;;;17.09;46.03
11339;BME280;5724;42.684;23.252;2022-07-11T10:13:50;94561.72;;;17.41;47.60
11339;BME280;5724;42.684;23.252;2022-07-11T10:19:14;94564.81;;;17.90;46.42
11339;BME280;5724;42.684;23.252;2022-07-11T10:22:02;94569.53;;;17.93;46.45
11339;BME280;5724;42.684;23.252;2022-07-11T10:24:49;94567.22;;;17.66;42.49
11339;BME280;5724;42.684;23.252;2022-07-11T10:27:35;94560.91;;;17.69;43.29
11339;BME280;5724;42.684;23.252;2022-07-11T10:30:02;94595.56;;;18.06;44.12
11339;BME280;5724;42.684;23.252;2022-07-11T10:32:28;94574.72;;;17.55;43.61
11339;BME280;5724;42.684;23.252;2022-07-11T10:37:45;94565.22;;;17.63;43.08
11339;BME280;5724;42.684;23.252;2022-07-11T10:40:12;94558.16;;;17.69;44.20
11339;BME280;5724;42.684;23.252;2022-07-11T10:42:39;94572.75;;;17.59;43.67
11339;BME280;5724;42.684;23.252;2022-07-11T10:45:10;94559.72;;;17.70;43.86
11339;BME280;5724;42.684;23.252;2022-07-11T10:47:43;94569.59;;;17.61;44.71
11339;BME280;5724;42.684;23.252;2022-07-11T10:52:56;94556.13;;;17.81;44.84
11339;BME280;5724;42.684;23.252;2022-07-11T10:55:33;94565.63;;;17.65;42.13
11339;BME280;5724;42.684;23.252;2022-07-11T11:03:33;94575.84;;;17.93;42.28
11339;BME280;5724;42.684;23.252;2022-07-11T11:05:58;94573.00;;;18.11;42.08
11339;BME280;5724;42.684;23.252;2022-07-11T11:10:59;94581.41;;;17.83;42.40
11339;BME280;5724;42.684;23.252;2022-07-11T11:13:26;94594.03;;;17.91;43.05
11339;BME280;5724;42.684;23.252;2022-07-11T11:15:59;94571.94;;;17.55;43.11
11339;BME280;5724;42.684;23.252;2022-07-11T11:25:53;94570.25;;;18.11;43.56
11339;BME280;5724;42.684;23.252;2022-07-11T11:28:22;94578.97;;;18.06;42.27
11339;BME280;5724;42.684;23.252;2022-07-11T11:30:55;94558.44;;;18.00;42.47
11339;BME280;5724;42.684;23.252;2022-07-11T11:33:21;94577.34;;;18.16;43.96
11339;BME280;5724;42.684;23.252;2022-07-11T11:36:08;94578.13;;;18.13;43.13
11339;BME280;5724;42.684;23.252;2022-07-11T11:38:39;94571.06;;;18.08;43.35
11339;BME280;5724;42.684;23.252;2022-07-11T11:41:05;94577.44;;;17.84;42.12
11339;BME280;5724;42.684;23.252;2022-07-11T11:43:32;94575.88;;;17.83;42.96
11339;BME280;5724;42.684;23.252;2022-07-11T11:45:58;94565.13;;;18.10;42.63
11339;BME280;5724;42.684;23.252;2022-07-11T11:48:30;94562.34;;;18.17;43.29
11339;BME280;5724;42.684;23.252;2022-07-11T11:51:10;94563.91;;;18.14;43.25
11339;BME280;5724;42.684;23.252;2022-07-11T11:53:37;94563.75;;;18.43;43.59
11339;BME280;5724;42.684;23.252;2022-07-11T11:56:31;94593.84;;;18.37;44.37
11339;BME280;5724;42.684;23.252;2022-07-11T11:59:04;94570.59;;;18.24;44.04
11339;BME280;5724;42.684;23.252;2022-07-11T12:01:31;94585.47;;;18.51;44.05
11339;BME280;5724;42.684;23.252;2022-07-11T12:04:05;94573.19;;;18.56;43.73
11339;BME280;5724;42.684;23.252;2022-07-11T12:06:39;94589.47;;;18.43;43.33
11339;BME280;5724;42.684;23.252;2022-07-11T12:09:11;94572.97;;;18.25;43.29
11339;BME280;5724;42.684;23.252;2022-07-11T12:11:38;94566.63;;;18.28;43.26
11339;BME280;5724;42.684;23.252;2022-07-11T12:14:05;94557.13;;;18.29;41.81
11339;BME280;5724;42.684;23.252;2022-07-11T12:16:33;94569.72;;;18.45;42.64
11339;BME280;5724;42.684;23.252;2022-07-11T12:19:11;94575.94;;;18.59;43.89
11339;BME280;5724;42.684;23.252;2022-07-11T12:21:42;94594.53;;;18.52;42.57
11339;BME280;5724;42.684;23.252;2022-07-11T12:24:11;94566.03;;;18.62;42.98
11339;BME280;5724;42.684;23.252;2022-07-11T12:26:40;94579.47;;;18.64;43.17
11339;BME280;5724;42.684;23.252;2022-07-11T12:29:13;94578.53;;;18.92;42.17
11339;BME280;5724;42.684;23.252;2022-07-11T12:32:15;94578.25;;;18.75;41.72
11339;BME280;5724;42.684;23.252;2022-07-11T12:37:04;94602.31;;;18.85;41.39
11339;BME280;5724;42.684;23.252;2022-07-11T12:39:31;94590.84;;;18.83;42.63
11339;BME280;5724;42.684;23.252;2022-07-11T12:41:58;94577.88;;;18.70;42.45
11339;BME280;5724;42.684;23.252;2022-07-11T12:44:29;94554.78;;;18.91;42.49
11339;BME280;5724;42.684;23.252;2022-07-11T12:47:14;94563.75;;;19.12;41.63
11339;BME280;5724;42.684;23.252;2022-07-11T12:49:42;94581.22;;;19.02;41.00
11339;BME280;5724;42.684;23.252;2022-07-11T12:52:12;94572.88;;;19.06;42.00
11339;BME280;5724;42.684;23.252;2022-07-11T12:54:38;94585.25;;;18.91;41.68
11339;BME280;5724;42.684;23.252;2022-07-11T12:57:05;94569.41;;;18.95;43.65
11339;BME280;5724;42.684;23.252;2022-07-11T12:59:32;94567.78;;;19.01;42.10
11339;BME280;5724;42.684;23.252;2022-07-11T13:04:31;94557.53;;;19.42;42.01
11339;BME280;5724;42.684;23.252;2022-07-11T13:06:57;94559.84;;;19.51;41.98
11339;BME280;5724;42.684;23.252;2022-07-11T13:09:41;94564.19;;;19.49;40.54
11339;BME280;5724;42.684;23.252;2022-07-11T13:12:07;94574.72;;;19.68;41.06
11339;BME280;5724;42.684;23.252;2022-07-11T13:14:32;94580.03;;;19.52;40.87
11339;BME280;5724;42.684;23.252;2022-07-11T13:17:17;94570.06;;;19.58;39.53
11339;BME280;5724;42.684;23.252;2022-07-11T13:19:42;94560.97;;;19.12;40.05
11339;BME280;5724;42.684;23.252;2022-07-11T13:22:08;94564.03;;;19.25;40.13
11339;BME280;5724;42.684;23.252;2022-07-11T13:24:33;94585.91;;;19.09;40.94
11339;BME280;5724;42.684;23.252;2022-07-11T13:26:58;94554.66;;;19.12;40.78
11339;BME280;5724;42.684;23.252;2022-07-11T13:29:24;94562.25;;;19.45;40.00
11339;BME280;5724;42.684;23.252;2022-07-11T13:31:50;94571.59;;;19.21;39.77
11339;BME280;5724;42.684;23.252;2022-07-11T13:34:16;94557.56;;;18.91;39.82